createdAt,value
2018-12-14T00:00:43.982Z,3.50
2018-12-14T00:03:12.282Z,3.40
2018-12-14T00:05:40.568Z,3.40
2018-12-14T00:08:08.820Z,3.40
2018-12-14T00:10:37.081Z,3.40
2018-12-14T00:13:05.381Z,3.40
2018-12-14T00:15:33.753Z,3.40
2018-12-14T00:18:02.020Z,3.50
2018-12-14T00:20:30.235Z,3.50
2018-12-14T00:22:58.512Z,3.50
2018-12-14T00:25:26.879Z,3.50
2018-12-14T00:27:55.131Z,3.50
2018-12-14T00:30:23.358Z,3.50
2018-12-14T00:32:51.739Z,3.50
2018-12-14T00:35:20.289Z,3.50
2018-12-14T00:37:48.520Z,3.60
2018-12-14T00:40:16.835Z,3.50
2018-12-14T00:42:45.095Z,3.60
2018-12-14T00:45:13.411Z,3.60
2018-12-14T00:47:41.751Z,3.70
2018-12-14T00:50:10.221Z,3.80
2018-12-14T00:52:38.607Z,3.70
2018-12-14T00:55:07.563Z,3.80
2018-12-14T00:57:35.872Z,3.90
2018-12-14T01:00:05.055Z,3.70
2018-12-14T01:02:33.319Z,3.60
2018-12-14T01:05:01.551Z,3.60
2018-12-14T01:07:29.835Z,3.70
2018-12-14T01:09:58.085Z,3.70
2018-12-14T01:12:26.355Z,3.70
2018-12-14T01:14:54.741Z,3.50
2018-12-14T01:17:23.014Z,3.40
2018-12-14T01:19:51.256Z,3.30
2018-12-14T01:22:19.564Z,3.30
2018-12-14T01:24:47.861Z,3.30
2018-12-14T01:27:16.329Z,3.20
2018-12-14T01:29:44.585Z,3.20
2018-12-14T01:32:12.876Z,3.20
2018-12-14T01:34:41.204Z,3.20
2018-12-14T01:37:09.481Z,3.20
2018-12-14T01:39:37.759Z,3.10
2018-12-14T01:42:06.401Z,3.20
2018-12-14T01:44:34.700Z,3.20
2018-12-14T01:47:02.976Z,3.20
2018-12-14T01:49:31.251Z,3.30
2018-12-14T01:51:59.458Z,3.20
2018-12-14T01:54:27.724Z,3.10
2018-12-14T01:56:55.966Z,3.10
2018-12-14T01:59:24.179Z,3.10
2018-12-14T02:01:52.482Z,3.10
2018-12-14T02:04:20.739Z,3.10
2018-12-14T02:06:48.980Z,3.10
2018-12-14T02:09:17.343Z,3.20
2018-12-14T02:11:45.638Z,3.10
2018-12-14T02:14:13.901Z,3.10
2018-12-14T02:16:42.211Z,3.10
2018-12-14T02:19:10.636Z,3.20
2018-12-14T02:21:38.949Z,3.10
2018-12-14T02:24:07.211Z,3.10
2018-12-14T02:26:35.409Z,3.20
2018-12-14T02:29:03.876Z,3.20
2018-12-14T02:31:32.084Z,3.10
2018-12-14T02:34:00.376Z,3.20
2018-12-14T02:36:28.617Z,3.20
2018-12-14T02:38:56.840Z,3.20
2018-12-14T02:41:25.072Z,3.00
2018-12-14T02:43:53.348Z,3.10
2018-12-14T02:46:21.636Z,3.00
2018-12-14T02:48:49.939Z,3.00
2018-12-14T02:51:18.198Z,2.90
2018-12-14T02:53:46.463Z,3.00
2018-12-14T02:56:14.704Z,3.00
2018-12-14T02:58:43.046Z,2.90
2018-12-14T03:01:11.260Z,2.90
2018-12-14T03:03:39.639Z,2.90
2018-12-14T03:06:07.895Z,3.00
2018-12-14T03:08:36.141Z,2.90
2018-12-14T03:11:04.587Z,2.90
2018-12-14T03:13:33.065Z,2.90
2018-12-14T03:16:02.108Z,2.90
2018-12-14T03:18:30.538Z,3.00
2018-12-14T03:20:58.815Z,3.10
2018-12-14T03:23:27.148Z,2.90
2018-12-14T03:25:55.833Z,2.90
2018-12-14T03:28:24.082Z,2.90
2018-12-14T03:30:52.630Z,2.90
2018-12-14T03:33:20.905Z,2.90
2018-12-14T03:35:49.246Z,2.90
2018-12-14T03:38:17.493Z,2.90
2018-12-14T03:40:45.781Z,2.90
2018-12-14T03:43:14.151Z,2.90
2018-12-14T03:45:42.517Z,2.90
2018-12-14T03:48:10.821Z,2.90
2018-12-14T03:50:39.147Z,3.00
2018-12-14T03:53:07.408Z,2.90
2018-12-14T03:55:35.732Z,2.90
2018-12-14T03:58:04.230Z,3.00
2018-12-14T04:00:32.711Z,2.90
2018-12-14T04:03:01.288Z,2.90
2018-12-14T04:05:29.848Z,2.80
2018-12-14T04:07:58.129Z,2.70
2018-12-14T04:10:26.383Z,2.80
2018-12-14T04:12:54.668Z,2.80
2018-12-14T04:15:23.043Z,2.80
2018-12-14T04:17:51.339Z,2.80
2018-12-14T04:20:19.658Z,2.90
2018-12-14T04:22:47.950Z,2.90
2018-12-14T04:25:16.461Z,2.80
2018-12-14T04:27:44.782Z,2.80
2018-12-14T04:30:13.242Z,2.80
2018-12-14T04:32:41.510Z,2.80
2018-12-14T04:35:09.810Z,2.80
2018-12-14T04:37:38.095Z,2.80
2018-12-14T04:40:07.327Z,2.90
2018-12-14T04:42:35.993Z,2.90
2018-12-14T04:45:05.117Z,2.80
2018-12-14T04:47:33.464Z,2.80
2018-12-14T04:50:01.686Z,2.80
2018-12-14T04:52:29.896Z,2.80
2018-12-14T04:54:58.075Z,2.80
2018-12-14T04:57:26.263Z,2.80
2018-12-14T04:59:54.466Z,2.80
2018-12-14T05:02:22.763Z,2.70
2018-12-14T05:04:50.961Z,2.80
2018-12-14T05:07:19.139Z,2.80
2018-12-14T05:09:47.338Z,2.80
2018-12-14T05:12:15.520Z,2.80
2018-12-14T05:14:43.899Z,2.70
2018-12-14T05:17:12.138Z,2.80
2018-12-14T05:19:40.398Z,2.70
2018-12-14T05:22:08.701Z,2.60
2018-12-14T05:24:36.890Z,2.60
2018-12-14T05:27:05.434Z,2.60
2018-12-14T05:29:33.604Z,2.70
2018-12-14T05:32:01.838Z,2.60
2018-12-14T05:34:30.096Z,2.60
2018-12-14T05:36:58.399Z,2.70
2018-12-14T05:39:26.609Z,2.70
2018-12-14T05:41:54.802Z,2.70
2018-12-14T05:44:23.071Z,2.70
2018-12-14T05:46:51.265Z,2.70
2018-12-14T05:49:19.444Z,2.60
2018-12-14T05:51:47.608Z,2.70
2018-12-14T05:54:15.790Z,2.70
2018-12-14T05:56:44.138Z,2.70
2018-12-14T05:59:12.401Z,2.70
2018-12-14T06:01:40.608Z,2.70
2018-12-14T06:04:09.140Z,2.70
2018-12-14T06:06:37.384Z,2.60
2018-12-14T06:09:06.553Z,2.60
2018-12-14T06:11:34.751Z,2.50
2018-12-14T06:14:03.014Z,2.60
2018-12-14T06:16:31.192Z,2.70
2018-12-14T06:18:59.484Z,2.70
2018-12-14T06:21:27.701Z,2.70
2018-12-14T06:23:55.829Z,2.70
2018-12-14T06:26:24.212Z,2.70
2018-12-14T06:28:52.386Z,2.80
2018-12-14T06:31:20.646Z,2.80
2018-12-14T06:33:48.964Z,2.80
2018-12-14T06:36:17.166Z,2.80
2018-12-14T06:38:45.424Z,2.70
2018-12-14T06:41:13.578Z,2.70
2018-12-14T06:43:41.875Z,2.70
2018-12-14T06:46:10.097Z,2.70
2018-12-14T06:48:38.322Z,2.80
2018-12-14T06:51:06.834Z,2.80
2018-12-14T06:53:35.020Z,2.90
2018-12-14T06:56:03.322Z,2.80
2018-12-14T06:58:32.625Z,2.90
2018-12-14T07:01:00.878Z,2.80
2018-12-14T07:03:29.125Z,2.80
2018-12-14T07:05:57.363Z,2.70
2018-12-14T07:08:25.534Z,2.80
2018-12-14T07:10:53.758Z,2.80
2018-12-14T07:13:22.146Z,2.90
2018-12-14T07:15:50.605Z,2.90
2018-12-14T07:18:18.897Z,2.90
2018-12-14T07:20:53.885Z,3.00
2018-12-14T07:23:22.249Z,3.00
2018-12-14T07:25:50.482Z,3.00
2018-12-14T07:28:19.525Z,3.00
2018-12-14T07:30:47.721Z,3.10
2018-12-14T07:33:16.074Z,2.90
2018-12-14T07:35:44.341Z,3.00
2018-12-14T07:38:12.582Z,3.00
2018-12-14T07:40:40.886Z,3.00
2018-12-14T07:43:09.109Z,3.00
2018-12-14T07:45:37.401Z,3.10
2018-12-14T07:48:05.613Z,3.10
2018-12-14T07:50:33.792Z,3.10
2018-12-14T07:53:02.002Z,3.10
2018-12-14T07:55:30.214Z,3.10
2018-12-14T07:57:58.534Z,3.00
2018-12-14T08:00:26.698Z,3.00
2018-12-14T08:02:55.211Z,3.00
2018-12-14T08:05:23.492Z,3.00
2018-12-14T08:07:51.712Z,3.10
2018-12-14T08:10:20.048Z,3.00
2018-12-14T08:12:48.623Z,3.10
2018-12-14T08:15:17.702Z,3.00
2018-12-14T08:17:52.489Z,3.10
2018-12-14T08:20:20.735Z,3.10
2018-12-14T08:22:50.020Z,3.20
2018-12-14T08:25:18.232Z,3.20
2018-12-14T08:27:46.486Z,3.20
2018-12-14T08:30:14.635Z,3.20
2018-12-14T08:32:42.837Z,3.20
2018-12-14T08:35:11.276Z,3.20
2018-12-14T08:37:39.439Z,3.20
2018-12-14T08:40:08.369Z,3.10
2018-12-14T08:42:36.824Z,3.20
2018-12-14T08:46:08.804Z,3.30
2018-12-14T08:48:37.124Z,3.30
2018-12-14T08:51:05.327Z,3.30
2018-12-14T08:53:33.902Z,3.30
2018-12-14T08:56:02.204Z,3.40
2018-12-14T08:58:30.397Z,3.40
2018-12-14T09:00:58.541Z,3.50
2018-12-14T09:03:26.857Z,3.50
2018-12-14T09:05:55.020Z,3.30
2018-12-14T09:08:24.270Z,3.20
2018-12-14T09:10:52.506Z,3.20
2018-12-14T09:13:20.719Z,3.20
2018-12-14T09:15:48.929Z,3.20
2018-12-14T09:18:17.146Z,3.20
2018-12-14T09:20:45.358Z,3.20
2018-12-14T09:23:13.673Z,3.30
2018-12-14T09:25:41.880Z,3.30
2018-12-14T09:28:10.048Z,3.40
2018-12-14T09:30:42.614Z,3.30
2018-12-14T09:33:08.498Z,3.30
2018-12-14T09:35:36.701Z,3.20
2018-12-14T09:38:05.021Z,3.10
2018-12-14T09:40:33.373Z,3.10
2018-12-14T09:43:01.697Z,3.00
2018-12-14T09:45:29.873Z,3.10
2018-12-14T09:47:58.171Z,3.30
2018-12-14T09:50:26.438Z,3.40
2018-12-14T09:52:54.609Z,3.40
2018-12-14T09:55:22.801Z,3.40
2018-12-14T09:57:50.992Z,3.30
2018-12-14T10:00:19.237Z,3.30
2018-12-14T10:02:47.388Z,3.30
2018-12-14T10:05:15.586Z,3.30
2018-12-14T10:07:46.844Z,3.20
2018-12-14T10:10:14.052Z,3.30
2018-12-14T10:12:42.243Z,3.30
2018-12-14T10:15:10.647Z,3.40
2018-12-14T10:17:39.210Z,3.40
2018-12-14T10:20:09.066Z,3.50
2018-12-14T10:22:41.546Z,3.60
2018-12-14T10:25:07.905Z,3.60
2018-12-14T10:27:36.229Z,3.60
2018-12-14T10:30:05.274Z,3.60
2018-12-14T10:32:33.520Z,3.70
2018-12-14T10:35:01.726Z,3.80
2018-12-14T10:37:29.975Z,3.80
2018-12-14T10:39:58.234Z,3.80
2018-12-14T10:42:45.725Z,3.70
2018-12-14T10:45:15.543Z,3.70
2018-12-14T10:47:44.327Z,3.60
2018-12-14T10:50:13.608Z,3.70
2018-12-14T10:52:42.232Z,3.70
2018-12-14T10:55:11.074Z,3.80
2018-12-14T10:57:40.084Z,3.80
2018-12-14T11:00:17.142Z,3.90
2018-12-14T11:02:45.726Z,4.00
2018-12-14T11:05:14.459Z,3.90
2018-12-14T11:07:43.354Z,3.90
2018-12-14T11:10:12.259Z,4.10
2018-12-14T11:12:41.161Z,4.20
2018-12-14T11:15:16.585Z,4.30
2018-12-14T11:17:45.431Z,4.20
2018-12-14T11:20:13.894Z,4.10
2018-12-14T11:22:42.477Z,4.00
2018-12-14T11:25:11.085Z,4.10
2018-12-14T11:27:39.605Z,4.20
2018-12-14T11:30:10.042Z,4.30
2018-12-14T11:32:38.673Z,4.20
2018-12-14T11:35:07.378Z,4.30
2018-12-14T11:37:36.021Z,4.30
2018-12-14T11:40:05.963Z,4.30
2018-12-14T11:42:34.587Z,4.20
2018-12-14T11:45:03.293Z,4.20
2018-12-14T11:47:32.074Z,4.30
2018-12-14T11:50:00.542Z,4.40
2018-12-14T11:52:29.141Z,4.50
2018-12-14T11:54:57.767Z,4.20
2018-12-14T11:57:26.290Z,4.10
2018-12-14T11:59:54.937Z,4.10
2018-12-14T12:02:23.661Z,4.10
2018-12-14T12:04:52.263Z,4.00
2018-12-14T12:07:20.828Z,4.10
2018-12-14T12:09:49.550Z,4.10
2018-12-14T12:12:18.394Z,4.10
2018-12-14T12:14:47.211Z,4.10
2018-12-14T12:17:15.921Z,4.10
2018-12-14T12:19:44.606Z,4.00
2018-12-14T12:22:13.661Z,4.00
2018-12-14T12:24:42.415Z,3.90
2018-12-14T12:27:11.294Z,3.90
2018-12-14T12:29:39.862Z,3.90
2018-12-14T12:32:08.844Z,4.00
2018-12-14T12:34:37.469Z,4.10
2018-12-14T12:37:06.309Z,4.00
2018-12-14T12:39:35.058Z,3.90
2018-12-14T12:42:04.720Z,3.90
2018-12-14T12:44:37.103Z,3.90
2018-12-14T12:47:13.953Z,3.90
2018-12-14T12:49:42.743Z,3.90
2018-12-14T12:52:12.758Z,3.90
2018-12-14T12:54:41.399Z,3.90
2018-12-14T12:57:10.007Z,3.90
2018-12-14T12:59:39.017Z,4.00
2018-12-14T13:02:07.870Z,4.00
2018-12-14T13:04:36.895Z,3.90
2018-12-14T13:07:05.518Z,4.00
2018-12-14T13:09:34.061Z,3.90
2018-12-14T13:12:02.690Z,3.90
2018-12-14T13:14:31.249Z,4.00
2018-12-14T13:16:59.875Z,3.90
2018-12-14T13:19:28.557Z,3.90
2018-12-14T13:21:57.765Z,4.00
2018-12-14T13:24:26.324Z,3.90
2018-12-14T13:26:55.148Z,3.70
2018-12-14T13:29:24.253Z,3.60
2018-12-14T13:31:52.806Z,3.80
2018-12-14T13:34:21.540Z,3.80
2018-12-14T13:36:50.106Z,3.80
2018-12-14T13:39:20.290Z,3.90
2018-12-14T13:41:49.115Z,3.80
2018-12-14T13:44:17.617Z,3.70
2018-12-14T13:46:46.266Z,3.60
2018-12-14T13:49:14.843Z,3.70
2018-12-14T13:51:44.028Z,3.70
2018-12-14T13:54:12.672Z,3.60
2018-12-14T13:56:41.278Z,3.60
2018-12-14T13:59:09.939Z,3.50
2018-12-14T14:01:38.622Z,3.60
2018-12-14T14:04:07.265Z,3.60
2018-12-14T14:06:36.231Z,3.60
2018-12-14T14:09:21.476Z,3.70
2018-12-14T14:11:51.079Z,3.70
2018-12-14T14:14:19.641Z,3.70
2018-12-14T14:16:49.428Z,3.70
2018-12-14T14:19:18.159Z,3.70
2018-12-14T14:21:46.734Z,3.70
2018-12-14T14:24:18.658Z,3.70
2018-12-14T14:26:50.422Z,3.60
2018-12-14T14:29:23.206Z,3.70
2018-12-14T14:31:53.208Z,3.70
2018-12-14T14:34:22.133Z,3.70
2018-12-14T14:36:51.516Z,3.70
2018-12-14T14:39:23.121Z,3.70
2018-12-14T14:41:51.785Z,3.70
2018-12-14T14:44:20.529Z,3.70
2018-12-14T14:46:50.132Z,3.70
2018-12-14T14:49:18.905Z,3.60
2018-12-14T14:51:50.704Z,3.60
2018-12-14T14:54:19.885Z,3.50
2018-12-14T14:59:26.191Z,3.50
2018-12-14T15:02:12.167Z,3.50
2018-12-14T15:04:56.199Z,3.50
2018-12-14T15:07:25.904Z,3.40
2018-12-14T15:10:07.509Z,3.40
2018-12-14T15:12:36.265Z,3.30
2018-12-14T15:15:07.775Z,3.40
2018-12-14T15:17:36.281Z,3.40
2018-12-14T15:20:09.622Z,3.30
2018-12-14T15:22:40.387Z,3.30
2018-12-14T15:25:08.871Z,3.30
2018-12-14T15:30:33.202Z,3.40
2018-12-14T15:33:04.786Z,3.30
2018-12-14T15:35:33.427Z,3.40
2018-12-14T15:38:02.884Z,3.40
2018-12-14T15:40:39.496Z,3.40
2018-12-14T15:46:58.407Z,3.40
2018-12-14T16:43:38.261Z,3.50
2018-12-14T16:46:06.481Z,3.40
2018-12-14T16:48:34.712Z,3.40
2018-12-14T16:51:02.966Z,3.50
2018-12-14T16:53:33.950Z,3.50
2018-12-14T16:56:02.186Z,3.60
2018-12-14T16:58:30.381Z,3.60
2018-12-14T17:00:58.551Z,3.60
2018-12-14T17:03:26.933Z,3.60
2018-12-14T17:05:55.122Z,3.60
2018-12-14T17:08:23.321Z,3.50
2018-12-14T17:10:51.546Z,3.60
2018-12-14T17:13:19.753Z,3.70
2018-12-14T17:15:47.936Z,3.70
2018-12-14T17:18:16.144Z,3.70
2018-12-14T17:20:44.322Z,3.60
2018-12-14T17:23:12.570Z,3.60
2018-12-14T17:25:40.780Z,3.80
2018-12-14T17:28:08.984Z,3.80
2018-12-14T17:30:37.226Z,3.80
2018-12-14T17:33:05.480Z,3.90
2018-12-14T17:35:33.784Z,4.00
2018-12-14T17:38:02.106Z,4.00
2018-12-14T17:40:30.508Z,4.10
2018-12-14T17:42:58.844Z,4.00
2018-12-14T17:45:27.177Z,4.00
2018-12-14T17:47:55.433Z,4.00
2018-12-14T17:50:23.670Z,4.00
2018-12-14T17:52:52.088Z,4.00
2018-12-14T17:55:20.342Z,3.90
2018-12-14T17:57:48.626Z,3.90
2018-12-14T18:00:16.913Z,3.90
2018-12-14T18:02:45.113Z,3.90
2018-12-14T18:05:13.318Z,3.90
2018-12-14T18:07:41.673Z,3.80
2018-12-14T18:10:09.903Z,3.80
2018-12-14T18:12:38.219Z,3.80
2018-12-14T18:15:06.667Z,3.80
2018-12-14T18:17:41.365Z,3.80
2018-12-14T18:20:09.741Z,3.80
2018-12-14T18:22:38.191Z,3.80
2018-12-14T18:25:07.362Z,3.90
2018-12-14T18:27:35.842Z,3.90
2018-12-14T18:30:05.316Z,3.80
2018-12-14T18:32:33.588Z,3.90
2018-12-14T18:35:01.896Z,3.90
2018-12-14T18:37:30.145Z,3.90
2018-12-14T18:39:58.360Z,4.00
2018-12-14T18:42:26.580Z,4.00
2018-12-14T18:44:54.762Z,3.90
2018-12-14T18:47:23.019Z,3.90
2018-12-14T18:49:51.307Z,3.90
2018-12-14T18:52:19.565Z,3.90
2018-12-14T18:54:47.839Z,3.90
2018-12-14T18:57:16.070Z,3.70
2018-12-14T18:59:44.277Z,3.70
2018-12-14T19:02:12.510Z,3.70
2018-12-14T19:04:40.693Z,3.70
2018-12-14T19:07:08.896Z,3.80
2018-12-14T19:09:37.408Z,3.80
2018-12-14T19:12:05.614Z,3.90
2018-12-14T19:14:33.896Z,3.90
2018-12-14T19:17:02.199Z,3.90
2018-12-14T19:19:30.419Z,3.80
2018-12-14T19:21:58.834Z,3.90
2018-12-14T19:24:27.136Z,3.80
2018-12-14T19:26:55.338Z,3.90
2018-12-14T19:29:23.544Z,3.80
2018-12-14T19:31:51.796Z,3.90
2018-12-14T19:34:20.141Z,3.90
2018-12-14T19:36:48.378Z,3.90
2018-12-14T19:39:16.917Z,3.90
2018-12-14T19:41:45.526Z,3.80
2018-12-14T19:44:13.878Z,3.80
2018-12-14T19:46:42.411Z,3.90
2018-12-14T19:49:10.687Z,3.70
2018-12-14T19:51:38.963Z,3.80
2018-12-14T19:54:07.330Z,3.90
2018-12-14T19:56:35.625Z,3.90
2018-12-14T19:59:07.682Z,4.00
2018-12-14T20:01:38.531Z,4.00
2018-12-14T20:04:06.882Z,3.90
2018-12-14T20:06:35.097Z,3.80
2018-12-14T20:09:05.248Z,3.50
2018-12-14T20:11:33.858Z,3.70
2018-12-14T20:14:02.411Z,3.80
2018-12-14T20:16:31.395Z,3.80
2018-12-14T20:19:00.830Z,3.80
2018-12-14T20:21:29.018Z,3.80
2018-12-14T20:23:57.659Z,3.70
2018-12-14T20:26:25.937Z,3.60
2018-12-14T20:28:54.407Z,3.60
2018-12-14T20:31:22.887Z,3.60
2018-12-14T20:33:51.397Z,3.60
2018-12-14T20:36:19.774Z,3.50
2018-12-14T20:38:48.120Z,3.50
2018-12-14T20:41:16.486Z,3.50
2018-12-14T20:43:45.400Z,3.40
2018-12-14T20:46:19.277Z,3.40
2018-12-14T20:48:44.462Z,3.40
2018-12-14T20:51:13.070Z,3.30
2018-12-14T20:53:42.669Z,3.30
2018-12-14T20:56:11.018Z,3.20
2018-12-14T20:58:39.539Z,3.30
2018-12-14T21:01:07.976Z,3.20
2018-12-14T21:03:36.744Z,3.20
2018-12-14T21:06:05.813Z,3.20
2018-12-14T21:08:34.273Z,3.30
2018-12-14T21:11:02.570Z,3.10
2018-12-14T21:13:31.054Z,3.00
2018-12-14T21:15:59.331Z,3.00
2018-12-14T21:18:29.902Z,3.00
2018-12-14T21:20:58.352Z,3.10
2018-12-14T21:23:26.754Z,3.20
2018-12-14T21:25:55.082Z,3.20
2018-12-14T21:28:23.477Z,3.10
2018-12-14T21:30:51.782Z,3.10
2018-12-14T21:44:25.408Z,3.20
2018-12-14T21:46:53.630Z,3.10
2018-12-14T21:49:22.034Z,3.20
2018-12-14T21:51:50.273Z,3.20
2018-12-14T21:54:18.540Z,3.20
2018-12-14T21:56:46.868Z,3.20
2018-12-14T21:59:15.530Z,3.20
2018-12-14T22:01:44.022Z,3.20
2018-12-14T22:04:12.292Z,3.20
2018-12-14T22:06:40.564Z,3.10
2018-12-14T22:09:09.655Z,3.10
2018-12-14T22:11:37.937Z,3.10
2018-12-14T22:14:06.268Z,3.00
2018-12-14T22:16:39.139Z,3.00
2018-12-14T22:19:05.561Z,3.10
2018-12-14T22:21:33.782Z,3.10
2018-12-14T22:24:02.558Z,3.00
2018-12-14T22:26:30.766Z,3.00
2018-12-14T22:28:59.028Z,2.80
2018-12-14T22:31:27.330Z,2.80
2018-12-14T22:33:55.537Z,2.80
2018-12-14T22:36:23.816Z,2.90
2018-12-14T22:38:52.102Z,2.80
2018-12-14T22:41:20.348Z,2.80
2018-12-14T22:43:48.844Z,2.80
2018-12-14T22:46:17.429Z,2.90
2018-12-14T22:48:45.605Z,2.80
2018-12-14T22:51:13.973Z,2.80
2018-12-14T22:53:42.237Z,3.00
2018-12-14T22:56:10.450Z,3.00
2018-12-14T22:58:39.597Z,2.90
2018-12-14T23:01:07.838Z,3.00
2018-12-14T23:03:36.243Z,3.10
2018-12-14T23:06:04.597Z,3.00
2018-12-14T23:08:32.854Z,2.90
2018-12-14T23:11:01.058Z,2.80
2018-12-14T23:13:29.236Z,2.90
2018-12-14T23:15:57.474Z,3.00
2018-12-14T23:18:25.729Z,2.80
2018-12-14T23:20:53.904Z,2.80
2018-12-14T23:23:23.106Z,2.80
2018-12-14T23:25:51.301Z,2.90
2018-12-14T23:28:19.517Z,2.80
2018-12-14T23:30:47.722Z,2.80
2018-12-14T23:33:15.942Z,2.70
2018-12-14T23:35:44.176Z,2.70
2018-12-14T23:38:12.549Z,2.70
2018-12-14T23:40:40.770Z,2.80
2018-12-14T23:43:08.991Z,2.80
2018-12-14T23:45:37.224Z,2.70
2018-12-14T23:48:05.410Z,2.70
2018-12-14T23:50:33.768Z,2.60
2018-12-14T23:53:02.060Z,2.70
2018-12-14T23:55:30.291Z,2.70
2018-12-14T23:57:58.516Z,2.60
